createdAt,value
2023-01-21T00:01:03.320Z,5.80
2023-01-21T00:03:33.023Z,6.23
2023-01-21T00:05:59.770Z,6.57
2023-01-21T00:08:27.269Z,6.37
2023-01-21T00:10:54.287Z,5.63
2023-01-21T00:13:21.005Z,5.17
2023-01-21T00:15:47.753Z,4.90
2023-01-21T00:18:14.519Z,4.80
2023-01-21T00:20:41.172Z,6.00
2023-01-21T00:23:07.853Z,5.80
2023-01-21T00:25:34.474Z,4.93
2023-01-21T00:28:01.175Z,4.77
2023-01-21T00:30:27.801Z,5.13
2023-01-21T00:32:54.447Z,5.97
2023-01-21T00:35:21.046Z,4.83
2023-01-21T00:37:47.698Z,4.67
2023-01-21T00:40:14.802Z,6.47
2023-01-21T00:42:41.549Z,6.33
2023-01-21T00:45:09.021Z,6.37
2023-01-21T00:47:35.674Z,5.10
2023-01-21T00:50:02.970Z,5.10
2023-01-21T00:52:29.588Z,5.10
2023-01-21T00:54:56.220Z,5.30
2023-01-21T00:57:22.849Z,6.10
2023-01-21T00:59:49.631Z,5.30
2023-01-21T01:02:16.259Z,5.40
2023-01-21T01:04:43.000Z,5.40
2023-01-21T01:07:11.086Z,4.67
2023-01-21T01:09:37.716Z,6.13
2023-01-21T01:12:04.688Z,5.60
2023-01-21T01:14:31.289Z,6.23
2023-01-21T01:16:57.907Z,5.00
2023-01-21T01:19:25.384Z,4.20
2023-01-21T01:21:52.056Z,5.73
2023-01-21T01:24:18.722Z,4.37
2023-01-21T01:26:45.343Z,4.00
2023-01-21T01:29:13.597Z,5.63
2023-01-21T01:31:40.379Z,5.73
2023-01-21T01:34:07.297Z,4.63
2023-01-21T01:36:33.971Z,5.37
2023-01-21T01:39:00.585Z,6.20
2023-01-21T01:41:30.164Z,4.67
2023-01-21T01:44:02.241Z,4.33
2023-01-21T01:46:34.223Z,4.23
2023-01-21T01:49:15.177Z,5.10
2023-01-21T01:51:53.145Z,4.90
2023-01-21T01:54:42.300Z,4.37
2023-01-21T01:57:11.199Z,4.53
2023-01-21T01:59:38.554Z,5.03
2023-01-21T02:02:08.891Z,5.03
2023-01-21T02:04:42.633Z,4.10
2023-01-21T02:07:09.379Z,4.60
2023-01-21T02:09:36.076Z,4.03
2023-01-21T02:12:04.905Z,4.83
2023-01-21T02:14:32.936Z,5.23
2023-01-21T02:16:59.523Z,5.87
2023-01-21T02:19:32.667Z,4.73
2023-01-21T02:22:18.016Z,4.10
2023-01-21T02:25:16.058Z,4.73
2023-01-21T02:27:57.321Z,3.57
2023-01-21T02:30:23.970Z,5.30
2023-01-21T02:32:53.327Z,4.53
2023-01-21T02:35:43.378Z,4.00
2023-01-21T02:38:40.039Z,4.57
2023-01-21T02:41:23.817Z,4.43
2023-01-21T02:43:56.016Z,5.57
2023-01-21T02:46:31.731Z,4.23
2023-01-21T02:49:04.491Z,4.07
2023-01-21T02:51:31.067Z,4.70
2023-01-21T02:53:57.700Z,5.10
2023-01-21T02:56:27.864Z,3.67
2023-01-21T02:59:02.716Z,3.47
2023-01-21T03:01:48.322Z,3.33
2023-01-21T03:04:36.654Z,4.00
2023-01-21T03:07:18.033Z,3.80
2023-01-21T03:09:44.677Z,4.10
2023-01-21T03:12:26.903Z,3.63
2023-01-21T03:15:40.024Z,3.77
2023-01-21T03:18:16.501Z,3.40
2023-01-21T03:20:47.817Z,3.97
2023-01-21T03:23:27.052Z,3.67
2023-01-21T03:25:55.624Z,3.90
2023-01-21T03:28:26.233Z,4.50
2023-01-21T03:31:02.257Z,3.27
2023-01-21T03:33:33.000Z,3.40
2023-01-21T03:36:02.417Z,4.07
2023-01-21T03:38:35.914Z,3.80
2023-01-21T03:41:12.696Z,4.80
2023-01-21T03:43:39.832Z,4.90
2023-01-21T03:46:18.157Z,4.10
2023-01-21T03:48:53.436Z,4.10
2023-01-21T03:51:27.501Z,3.70
2023-01-21T03:53:58.798Z,3.83
2023-01-21T03:56:26.275Z,3.73
2023-01-21T03:58:53.320Z,3.23
2023-01-21T04:01:20.087Z,3.17
2023-01-21T04:03:46.728Z,4.23
2023-01-21T04:06:18.954Z,3.33
2023-01-21T04:08:45.621Z,4.27
2023-01-21T04:11:12.468Z,3.20
2023-01-21T04:13:39.209Z,3.30
2023-01-21T04:16:06.263Z,3.47
2023-01-21T04:18:32.997Z,3.60
2023-01-21T04:20:59.799Z,3.03
2023-01-21T04:23:26.451Z,4.07
2023-01-21T04:25:53.598Z,3.63
2023-01-21T04:28:20.708Z,4.00
2023-01-21T04:30:47.919Z,3.97
2023-01-21T04:33:14.848Z,4.30
2023-01-21T04:35:41.552Z,4.23
2023-01-21T04:38:08.201Z,3.80
2023-01-21T04:40:34.828Z,5.00
2023-01-21T04:43:02.288Z,4.47
2023-01-21T04:45:28.896Z,4.10
2023-01-21T04:47:55.489Z,4.27
2023-01-21T04:50:22.125Z,3.80
2023-01-21T04:52:48.764Z,4.87
2023-01-21T04:55:15.410Z,4.23
2023-01-21T04:57:41.989Z,5.27
2023-01-21T05:00:09.524Z,5.37
2023-01-21T05:02:36.299Z,6.23
2023-01-21T05:05:03.038Z,5.13
2023-01-21T05:07:29.642Z,5.50
2023-01-21T05:09:56.316Z,6.50
2023-01-21T05:12:22.928Z,4.53
2023-01-21T05:14:53.889Z,4.53
2023-01-21T05:17:21.140Z,4.40
2023-01-21T05:19:47.792Z,7.40
2023-01-21T05:22:14.395Z,5.27
2023-01-21T05:24:41.069Z,6.50
2023-01-21T05:27:08.362Z,6.40
2023-01-21T05:29:34.982Z,5.23
2023-01-21T05:32:02.252Z,5.30
2023-01-21T05:34:28.970Z,5.77
2023-01-21T05:36:55.646Z,6.07
2023-01-21T05:39:22.262Z,5.47
2023-01-21T05:41:48.844Z,4.70
2023-01-21T05:44:17.566Z,8.03
2023-01-21T05:46:44.386Z,6.10
2023-01-21T05:49:11.032Z,7.30
2023-01-21T05:51:37.682Z,8.30
2023-01-21T05:54:04.464Z,7.67
2023-01-21T05:56:31.068Z,6.40
2023-01-21T05:58:57.687Z,6.23
2023-01-21T06:01:24.945Z,5.43
2023-01-21T06:03:51.710Z,6.23
2023-01-21T06:06:18.507Z,5.33
2023-01-21T06:08:45.134Z,7.70
2023-01-21T06:11:11.797Z,7.23
2023-01-21T06:13:38.440Z,11.20
2023-01-21T06:16:05.365Z,9.77
2023-01-21T06:18:32.021Z,7.50
2023-01-21T06:21:01.734Z,7.30
2023-01-21T06:23:28.399Z,7.47
2023-01-21T06:26:02.027Z,5.50
2023-01-21T06:28:30.088Z,7.43
2023-01-21T06:30:56.797Z,7.43
2023-01-21T06:33:23.587Z,7.47
2023-01-21T06:35:50.231Z,8.17
2023-01-21T06:38:16.850Z,7.00
2023-01-21T06:40:43.941Z,7.77
2023-01-21T06:43:10.561Z,8.27
2023-01-21T06:45:37.247Z,6.63
2023-01-21T06:48:04.071Z,7.23
2023-01-21T06:50:30.715Z,6.53
2023-01-21T06:52:57.330Z,7.67
2023-01-21T06:55:23.961Z,8.03
2023-01-21T06:57:50.597Z,8.53
2023-01-21T07:00:18.860Z,8.77
2023-01-21T07:02:45.624Z,8.93
2023-01-21T07:05:12.277Z,8.73
2023-01-21T07:07:38.981Z,9.27
2023-01-21T07:10:06.195Z,9.20
2023-01-21T07:12:32.787Z,9.00
2023-01-21T07:14:59.474Z,8.50
2023-01-21T07:17:26.135Z,9.60
2023-01-21T07:19:52.721Z,8.37
2023-01-21T07:22:19.382Z,9.50
2023-01-21T07:24:46.147Z,7.83
2023-01-21T07:27:12.728Z,9.30
2023-01-21T07:29:39.359Z,8.30
2023-01-21T07:32:06.121Z,6.90
2023-01-21T07:34:32.837Z,6.70
2023-01-21T07:36:59.469Z,6.00
2023-01-21T07:39:26.040Z,8.00
2023-01-21T07:41:53.478Z,7.37
2023-01-21T07:44:20.060Z,8.57
2023-01-21T07:46:46.777Z,8.33
2023-01-21T07:49:17.340Z,7.37
2023-01-21T07:51:47.960Z,7.47
2023-01-21T07:54:15.079Z,8.83
2023-01-21T07:56:42.120Z,7.83
2023-01-21T07:59:10.467Z,7.63
2023-01-21T08:01:37.101Z,6.67
2023-01-21T08:04:03.834Z,6.90
2023-01-21T08:06:30.485Z,8.20
2023-01-21T08:08:57.077Z,7.67
2023-01-21T08:11:23.761Z,8.30
2023-01-21T08:13:50.917Z,8.70
2023-01-21T08:16:17.602Z,7.50
2023-01-21T08:18:44.283Z,7.10
2023-01-21T08:21:10.891Z,8.67
2023-01-21T08:23:37.662Z,8.93
2023-01-21T08:26:05.939Z,7.60
2023-01-21T08:28:33.346Z,9.17
2023-01-21T08:31:05.083Z,9.30
2023-01-21T08:33:31.806Z,8.53
2023-01-21T08:36:07.184Z,7.43
2023-01-21T08:38:34.568Z,7.93
2023-01-21T08:41:02.276Z,6.87
2023-01-21T08:43:28.958Z,5.43
2023-01-21T08:45:57.220Z,7.53
2023-01-21T08:48:24.061Z,15.47
2023-01-21T08:50:50.963Z,6.13
2023-01-21T08:53:17.636Z,5.53
2023-01-21T08:55:44.436Z,6.53
2023-01-21T08:58:11.113Z,5.27
2023-01-21T09:00:37.786Z,5.50
2023-01-21T09:03:04.521Z,6.87
2023-01-21T09:05:31.124Z,8.37
2023-01-21T09:07:58.344Z,5.93
2023-01-21T09:10:43.880Z,4.90
2023-01-21T09:13:11.208Z,4.77
2023-01-21T09:15:42.660Z,4.57
2023-01-21T09:18:09.725Z,3.83
2023-01-21T09:20:36.997Z,4.13
2023-01-21T09:23:24.283Z,2.77
2023-01-21T09:25:56.126Z,3.47
2023-01-21T09:28:23.651Z,4.77
2023-01-21T09:30:55.535Z,5.63
2023-01-21T09:33:22.213Z,4.60
2023-01-21T09:36:00.445Z,4.83
2023-01-21T09:38:28.886Z,3.87
2023-01-21T09:41:00.050Z,3.70
2023-01-21T09:43:33.670Z,1.83
2023-01-21T09:46:04.119Z,2.13
2023-01-21T09:48:39.918Z,1.97
2023-01-21T09:51:17.243Z,2.50
2023-01-21T09:53:56.139Z,1.90
2023-01-21T09:56:35.782Z,2.07
2023-01-21T09:59:37.465Z,1.73
2023-01-21T10:02:18.022Z,2.30
2023-01-21T10:05:07.035Z,2.13
2023-01-21T10:07:39.076Z,2.40
2023-01-21T10:10:18.281Z,1.47
2023-01-21T10:13:00.287Z,2.20
2023-01-21T10:15:46.490Z,1.60
2023-01-21T10:18:18.648Z,1.70
2023-01-21T10:20:53.508Z,1.80
2023-01-21T10:23:30.881Z,1.50
2023-01-21T10:26:02.174Z,1.97
2023-01-21T10:28:33.298Z,2.17
2023-01-21T10:31:08.741Z,2.20
2023-01-21T10:33:35.455Z,1.93
2023-01-21T10:36:26.948Z,2.20
2023-01-21T10:39:20.071Z,2.70
2023-01-21T10:42:16.724Z,1.57
2023-01-21T10:45:02.747Z,2.13
2023-01-21T10:47:56.220Z,2.27
2023-01-21T10:50:45.063Z,2.60
2023-01-21T10:53:41.685Z,2.30
2023-01-21T10:56:14.507Z,1.70
2023-01-21T10:58:52.736Z,1.73
2023-01-21T11:01:29.930Z,1.93
2023-01-21T11:04:19.191Z,6.50
2023-01-21T11:06:49.672Z,5.70
2023-01-21T11:09:16.383Z,2.77
2023-01-21T11:11:43.131Z,2.23
2023-01-21T11:14:10.499Z,6.33
2023-01-21T11:16:47.775Z,2.17
2023-01-21T11:19:17.858Z,1.87
2023-01-21T11:22:05.540Z,1.80
2023-01-21T11:24:43.612Z,2.00
2023-01-21T11:27:40.976Z,1.97
2023-01-21T11:30:44.493Z,1.87
2023-01-21T11:33:24.128Z,2.33
2023-01-21T11:35:53.172Z,2.67
2023-01-21T11:38:23.892Z,1.77
2023-01-21T11:41:04.579Z,1.60
2023-01-21T11:43:42.964Z,1.70
2023-01-21T11:46:33.025Z,1.73
2023-01-21T11:49:05.793Z,2.00
2023-01-21T11:51:36.423Z,2.30
2023-01-21T11:54:07.290Z,1.80
2023-01-21T11:56:35.439Z,1.70
2023-01-21T11:59:10.954Z,3.63
2023-01-21T12:01:37.632Z,1.50
2023-01-21T12:04:04.742Z,6.83
2023-01-21T12:06:31.974Z,1.97
2023-01-21T12:09:05.360Z,1.60
2023-01-21T12:11:32.804Z,1.57
2023-01-21T12:14:08.179Z,1.50
2023-01-21T12:16:38.024Z,1.30
2023-01-21T12:19:29.967Z,1.90
2023-01-21T12:22:03.420Z,1.33
2023-01-21T12:24:56.046Z,2.57
2023-01-21T12:27:40.852Z,1.90
2023-01-21T12:30:36.863Z,1.43
2023-01-21T12:33:16.813Z,1.70
2023-01-21T12:35:56.483Z,1.63
2023-01-21T12:38:32.891Z,2.43
2023-01-21T12:41:05.345Z,1.70
2023-01-21T12:43:46.728Z,1.40
2023-01-21T12:46:36.917Z,1.47
2023-01-21T12:49:20.996Z,1.40
2023-01-21T12:52:02.819Z,1.97
2023-01-21T12:54:37.715Z,1.77
2023-01-21T12:57:17.173Z,1.80
2023-01-21T12:59:56.301Z,1.83
2023-01-21T13:02:32.385Z,1.93
2023-01-21T13:05:06.596Z,2.30
2023-01-21T13:08:03.676Z,2.10
2023-01-21T13:10:42.291Z,2.83
2023-01-21T13:13:19.712Z,2.73
2023-01-21T13:15:56.680Z,2.80
2023-01-21T13:18:32.769Z,1.83
2023-01-21T13:21:22.302Z,1.90
2023-01-21T13:24:15.492Z,1.60
2023-01-21T13:27:24.808Z,1.90
2023-01-21T13:29:57.324Z,1.50
2023-01-21T13:32:26.951Z,1.97
2023-01-21T13:35:10.950Z,2.00
2023-01-21T13:37:40.305Z,1.83
2023-01-21T13:40:30.189Z,1.60
2023-01-21T13:42:59.458Z,1.83
2023-01-21T13:45:31.860Z,4.47
2023-01-21T13:48:22.871Z,7.40
2023-01-21T13:50:55.319Z,7.07
2023-01-21T13:53:49.730Z,2.90
2023-01-21T13:56:36.910Z,8.33
2023-01-21T13:59:12.406Z,4.23
2023-01-21T14:01:49.346Z,4.03
2023-01-21T14:04:55.513Z,5.73
2023-01-21T14:07:30.469Z,3.83
2023-01-21T14:10:12.381Z,4.00
2023-01-21T14:12:41.522Z,5.67
2023-01-21T14:15:39.307Z,4.50
2023-01-21T14:18:26.951Z,2.93
2023-01-21T14:21:15.463Z,3.47
2023-01-21T14:24:00.684Z,2.80
2023-01-21T14:26:29.953Z,2.90
2023-01-21T14:28:59.456Z,3.33
2023-01-21T14:31:41.420Z,2.60
2023-01-21T14:34:30.257Z,2.50
2023-01-21T14:37:09.463Z,2.70
2023-01-21T14:39:42.040Z,2.63
2023-01-21T14:42:17.771Z,4.53
2023-01-21T14:45:01.264Z,5.17
2023-01-21T14:47:30.419Z,4.30
2023-01-21T14:49:59.296Z,2.73
2023-01-21T14:52:36.643Z,2.63
2023-01-21T14:55:23.936Z,2.93
2023-01-21T14:57:53.008Z,3.00
2023-01-21T15:00:22.185Z,7.27
2023-01-21T15:03:43.719Z,3.93
2023-01-21T15:06:10.400Z,2.67
2023-01-21T15:08:46.317Z,2.77
2023-01-21T15:11:39.905Z,2.07
2023-01-21T15:14:14.320Z,2.43
2023-01-21T15:16:44.912Z,2.93
2023-01-21T15:19:11.427Z,4.13
2023-01-21T15:21:38.113Z,3.03
2023-01-21T15:24:21.455Z,3.63
2023-01-21T15:27:22.540Z,3.50
2023-01-21T15:29:55.197Z,11.57
2023-01-21T15:32:26.439Z,37.23
2023-01-21T15:34:58.930Z,8.40
2023-01-21T15:37:27.589Z,23.60
2023-01-21T15:40:00.692Z,28.23
2023-01-21T15:43:00.043Z,12.20
2023-01-21T15:45:40.840Z,4.33
2023-01-21T15:48:18.401Z,2.30
2023-01-21T15:51:06.510Z,3.50
2023-01-21T15:54:00.409Z,3.23
2023-01-21T15:56:38.131Z,2.80
2023-01-21T15:59:23.336Z,3.03
2023-01-21T16:02:14.368Z,2.20
2023-01-21T16:04:51.631Z,2.73
2023-01-21T16:07:24.896Z,2.20
2023-01-21T16:10:19.078Z,3.80
2023-01-21T16:12:45.639Z,3.70
2023-01-21T16:15:18.034Z,3.03
2023-01-21T16:17:59.780Z,3.33
2023-01-21T16:20:26.517Z,3.73
2023-01-21T16:22:57.995Z,3.93
2023-01-21T16:25:26.847Z,3.63
2023-01-21T16:27:55.195Z,3.07
2023-01-21T16:30:26.893Z,2.47
2023-01-21T16:33:10.066Z,3.27
2023-01-21T16:35:51.954Z,3.40
2023-01-21T16:38:25.634Z,3.20
2023-01-21T16:41:15.407Z,3.03
2023-01-21T16:43:59.754Z,4.30
2023-01-21T16:46:32.765Z,5.90
2023-01-21T16:49:01.054Z,5.50
2023-01-21T16:51:36.298Z,6.33
2023-01-21T16:54:24.982Z,6.73
2023-01-21T16:56:59.115Z,6.60
2023-01-21T16:59:28.872Z,5.97
2023-01-21T17:01:58.586Z,5.10
2023-01-21T17:04:25.348Z,5.30
2023-01-21T17:06:53.977Z,4.90
2023-01-21T17:09:29.129Z,8.83
2023-01-21T17:11:58.379Z,4.43
2023-01-21T17:14:29.697Z,4.43
2023-01-21T17:17:00.192Z,5.67
2023-01-21T17:19:38.436Z,5.03
2023-01-21T17:22:22.724Z,4.17
2023-01-21T17:24:55.781Z,4.97
2023-01-21T17:27:23.418Z,5.77
2023-01-21T17:29:50.252Z,9.63
2023-01-21T17:32:27.122Z,4.40
2023-01-21T17:35:16.644Z,7.03
2023-01-21T17:37:43.870Z,3.83
2023-01-21T17:40:46.057Z,4.10
2023-01-21T17:43:22.265Z,4.20
2023-01-21T17:45:51.054Z,4.13
2023-01-21T17:48:29.836Z,3.63
2023-01-21T17:51:07.149Z,3.47
2023-01-21T17:53:41.205Z,4.33
2023-01-21T17:56:08.561Z,5.13
2023-01-21T17:58:39.272Z,5.07
2023-01-21T18:01:06.335Z,4.83
2023-01-21T18:03:33.030Z,4.77
2023-01-21T18:05:59.837Z,4.67
2023-01-21T18:08:26.569Z,4.03
2023-01-21T18:10:53.234Z,4.60
2023-01-21T18:13:23.493Z,4.97
2023-01-21T18:15:52.010Z,4.43
2023-01-21T18:18:24.507Z,5.27
2023-01-21T18:20:51.320Z,4.77
2023-01-21T18:23:18.574Z,5.33
2023-01-21T18:25:52.342Z,5.33
2023-01-21T18:28:24.553Z,5.43
2023-01-21T18:30:54.379Z,3.77
2023-01-21T18:33:22.979Z,4.87
2023-01-21T18:35:51.592Z,5.23
2023-01-21T18:38:27.509Z,4.60
2023-01-21T18:40:57.547Z,4.10
2023-01-21T18:43:47.016Z,3.97
2023-01-21T18:46:14.506Z,4.33
2023-01-21T18:48:42.976Z,4.23
2023-01-21T18:51:10.400Z,4.27
2023-01-21T18:53:37.135Z,5.13
2023-01-21T18:56:06.336Z,4.07
2023-01-21T18:58:32.998Z,4.43
2023-01-21T19:01:00.499Z,6.23
2023-01-21T19:03:28.066Z,6.50
2023-01-21T19:05:55.240Z,6.23
2023-01-21T19:08:28.987Z,9.10
2023-01-21T19:10:56.035Z,10.50
2023-01-21T19:13:22.888Z,6.47
2023-01-21T19:15:50.851Z,6.33
2023-01-21T19:18:17.737Z,5.33
2023-01-21T19:20:44.668Z,4.53
2023-01-21T19:23:18.050Z,4.10
2023-01-21T19:25:55.531Z,4.67
2023-01-21T19:28:23.447Z,4.63
2023-01-21T19:30:55.182Z,6.47
2023-01-21T19:33:23.460Z,5.87
2023-01-21T19:35:56.151Z,5.03
2023-01-21T19:38:23.884Z,4.97
2023-01-21T19:40:50.759Z,5.63
2023-01-21T19:43:22.177Z,5.47
2023-01-21T19:45:51.791Z,4.57
2023-01-21T19:48:20.916Z,5.27
2023-01-21T19:50:48.100Z,9.13
2023-01-21T19:53:18.234Z,7.27
2023-01-21T19:55:47.644Z,5.77
2023-01-21T19:58:20.092Z,4.93
2023-01-21T20:00:49.345Z,4.60
2023-01-21T20:03:21.841Z,6.03
2023-01-21T20:05:51.595Z,6.60
2023-01-21T20:08:28.118Z,5.97
2023-01-21T20:10:55.077Z,6.70
2023-01-21T20:13:21.901Z,6.60
2023-01-21T20:15:51.064Z,5.90
2023-01-21T20:18:23.235Z,4.97
2023-01-21T20:20:50.129Z,5.07
2023-01-21T20:23:18.035Z,5.13
2023-01-21T20:25:48.525Z,4.73
2023-01-21T20:28:22.929Z,6.53
2023-01-21T20:30:51.585Z,9.47
2023-01-21T20:33:20.459Z,12.03
2023-01-21T20:35:54.306Z,11.80
2023-01-21T20:38:39.061Z,10.53
2023-01-21T20:41:05.966Z,7.20
2023-01-21T20:43:32.777Z,6.97
2023-01-21T20:46:07.246Z,7.57
2023-01-21T20:48:36.990Z,7.30
2023-01-21T20:51:04.073Z,7.60
2023-01-21T20:53:31.065Z,6.80
2023-01-21T20:56:00.862Z,6.93
2023-01-21T20:58:28.165Z,6.40
2023-01-21T21:00:56.312Z,6.63
2023-01-21T21:03:23.401Z,5.53
2023-01-21T21:05:50.274Z,6.50
2023-01-21T21:08:19.267Z,5.97
2023-01-21T21:10:46.366Z,7.10
2023-01-21T21:13:14.480Z,5.77
2023-01-21T21:15:42.077Z,6.67
2023-01-21T21:18:12.985Z,6.90
2023-01-21T21:20:40.321Z,8.93
2023-01-21T21:23:07.739Z,7.83
2023-01-21T21:25:40.591Z,7.20
2023-01-21T21:28:07.251Z,9.37
2023-01-21T21:30:34.623Z,6.43
2023-01-21T21:33:01.857Z,7.20
2023-01-21T21:35:35.272Z,7.73
2023-01-21T21:38:18.273Z,5.23
2023-01-21T21:40:46.901Z,5.27
2023-01-21T21:43:32.351Z,3.97
2023-01-21T21:46:23.584Z,3.40
2023-01-21T21:48:51.493Z,3.47
2023-01-21T21:51:18.738Z,2.93
2023-01-21T21:53:46.723Z,3.13
2023-01-21T21:56:14.497Z,2.83
2023-01-21T21:58:41.403Z,3.30
2023-01-21T22:01:08.147Z,3.30
2023-01-21T22:03:34.967Z,3.43
2023-01-21T22:06:03.940Z,3.80
2023-01-21T22:08:32.716Z,3.20
2023-01-21T22:11:00.729Z,3.50
2023-01-21T22:13:32.166Z,3.30
2023-01-21T22:16:00.769Z,4.37
2023-01-21T22:18:28.994Z,5.67
2023-01-21T22:21:26.916Z,5.93
2023-01-21T22:23:54.719Z,5.63
2023-01-21T22:26:23.963Z,4.77
2023-01-21T22:28:53.635Z,4.33
2023-01-21T22:31:38.271Z,3.97
2023-01-21T22:34:05.375Z,3.40
2023-01-21T22:36:32.682Z,3.00
2023-01-21T22:38:59.704Z,2.60
2023-01-21T22:41:27.082Z,3.30
2023-01-21T22:43:54.395Z,3.50
2023-01-21T22:46:26.721Z,3.73
2023-01-21T22:48:54.360Z,3.23
2023-01-21T22:51:22.986Z,3.60
2023-01-21T22:53:50.222Z,3.27
2023-01-21T22:56:19.765Z,3.97
2023-01-21T22:58:47.129Z,4.23
2023-01-21T23:01:20.897Z,6.00
2023-01-21T23:03:47.519Z,4.77
2023-01-21T23:06:14.161Z,5.57
2023-01-21T23:08:40.752Z,5.63
2023-01-21T23:11:08.831Z,4.33
2023-01-21T23:13:36.117Z,4.13
2023-01-21T23:16:06.377Z,3.90
2023-01-21T23:18:33.988Z,3.43
2023-01-21T23:21:05.737Z,3.73
2023-01-21T23:23:35.805Z,3.33
2023-01-21T23:26:03.864Z,3.30
2023-01-21T23:28:30.547Z,3.60
2023-01-21T23:30:57.247Z,3.57
2023-01-21T23:33:24.429Z,3.93
2023-01-21T23:36:00.020Z,3.40
2023-01-21T23:38:28.321Z,3.33
2023-01-21T23:40:56.329Z,4.23
2023-01-21T23:43:27.373Z,5.37
2023-01-21T23:45:54.781Z,4.77
2023-01-21T23:48:22.279Z,3.73
2023-01-21T23:50:48.997Z,3.43
2023-01-21T23:53:16.032Z,4.03
2023-01-21T23:55:42.752Z,3.70
2023-01-21T23:58:09.437Z,3.77
